sensor_id;sensor_type;location;lat;lon;timestamp;pressure;altitude;pressure_sealevel;temperature;humidity
70133;BME280;57495;49.922;7.966;2023-02-15T00:00:05;101490.75;;;1.51;100.00
70133;BME280;57495;49.922;7.966;2023-02-15T00:02:08;101488.03;;;1.54;100.00
70133;BME280;57495;49.922;7.966;2023-02-15T00:04:11;101482.75;;;1.54;100.00
70133;BME280;57495;49.922;7.966;2023-02-15T00:06:13;101486.06;;;1.61;100.00
70133;BME280;57495;49.922;7.966;2023-02-15T00:08:15;101486.06;;;1.61;100.00
70133;BME280;57495;49.922;7.966;2023-02-15T00:10:17;101478.47;;;1.52;100.00
70133;BME280;57495;49.922;7.966;2023-02-15T00:12:18;101476.63;;;1.54;100.00
70133;BME280;57495;49.922;7.966;2023-02-15T00:14:21;101476.47;;;1.59;100.00
70133;BME280;57495;49.922;7.966;2023-02-15T00:16:24;101474.69;;;1.59;100.00
70133;BME280;57495;49.922;7.966;2023-02-15T00:18:25;101472.97;;;1.58;100.00
70133;BME280;57495;49.922;7.966;2023-02-15T00:20:27;101476.50;;;1.57;100.00
70133;BME280;57495;49.922;7.966;2023-02-15T00:22:28;101479.56;;;1.71;100.00
70133;BME280;57495;49.922;7.966;2023-02-15T00:24:29;101476.03;;;1.72;100.00
70133;BME280;57495;49.922;7.966;2023-02-15T00:26:31;101468.13;;;1.72;100.00
70133;BME280;57495;49.922;7.966;2023-02-15T00:28:33;101474.09;;;1.78;100.00
70133;BME280;57495;49.922;7.966;2023-02-15T00:30:34;101475.75;;;1.82;100.00
70133;BME280;57495;49.922;7.966;2023-02-15T00:32:37;101471.41;;;1.79;100.00
70133;BME280;57495;49.922;7.966;2023-02-15T00:34:38;101474.00;;;1.81;100.00
70133;BME280;57495;49.922;7.966;2023-02-15T00:36:40;101474.69;;;1.59;100.00
70133;BME280;57495;49.922;7.966;2023-02-15T00:38:41;101472.69;;;1.67;100.00
70133;BME280;57495;49.922;7.966;2023-02-15T00:40:43;101468.44;;;1.63;100.00
70133;BME280;57495;49.922;7.966;2023-02-15T00:42:44;101464.88;;;1.64;100.00
70133;BME280;57495;49.922;7.966;2023-02-15T00:44:46;101462.44;;;1.58;100.00
70133;BME280;57495;49.922;7.966;2023-02-15T00:46:47;101462.84;;;1.44;100.00
70133;BME280;57495;49.922;7.966;2023-02-15T00:48:50;101459.38;;;1.44;100.00
70133;BME280;57495;49.922;7.966;2023-02-15T00:50:53;101453.72;;;1.56;100.00
70133;BME280;57495;49.922;7.966;2023-02-15T00:52:55;101448.03;;;1.68;100.00
70133;BME280;57495;49.922;7.966;2023-02-15T00:54:57;101451.72;;;1.63;100.00
70133;BME280;57495;49.922;7.966;2023-02-15T00:56:58;101448.44;;;1.56;100.00
70133;BME280;57495;49.922;7.966;2023-02-15T00:58:59;101457.75;;;1.66;100.00
70133;BME280;57495;49.922;7.966;2023-02-15T01:01:06;101454.06;;;1.72;100.00
70133;BME280;57495;49.922;7.966;2023-02-15T01:03:07;101456.56;;;1.77;100.00
70133;BME280;57495;49.922;7.966;2023-02-15T01:05:10;101448.25;;;1.62;100.00
70133;BME280;57495;49.922;7.966;2023-02-15T01:07:12;101443.25;;;1.53;100.00
70133;BME280;57495;49.922;7.966;2023-02-15T01:09:14;101447.81;;;1.48;100.00
70133;BME280;57495;49.922;7.966;2023-02-15T01:11:17;101444.53;;;1.41;100.00
70133;BME280;57495;49.922;7.966;2023-02-15T01:13:22;101441.72;;;1.46;100.00
70133;BME280;57495;49.922;7.966;2023-02-15T01:15:24;101447.50;;;1.57;100.00
70133;BME280;57495;49.922;7.966;2023-02-15T01:17:25;101441.69;;;1.47;100.00
70133;BME280;57495;49.922;7.966;2023-02-15T01:19:27;101450.44;;;1.48;100.00
70133;BME280;57495;49.922;7.966;2023-02-15T01:21:29;101454.38;;;1.34;100.00
70133;BME280;57495;49.922;7.966;2023-02-15T01:23:34;101462.25;;;1.36;100.00
70133;BME280;57495;49.922;7.966;2023-02-15T01:25:36;101456.22;;;1.32;100.00
70133;BME280;57495;49.922;7.966;2023-02-15T01:27:37;101445.25;;;1.46;100.00
70133;BME280;57495;49.922;7.966;2023-02-15T01:29:39;101450.38;;;1.51;100.00
70133;BME280;57495;49.922;7.966;2023-02-15T01:31:40;101454.56;;;1.57;100.00
70133;BME280;57495;49.922;7.966;2023-02-15T01:33:42;101448.25;;;1.62;100.00
70133;BME280;57495;49.922;7.966;2023-02-15T01:35:44;101454.94;;;1.72;100.00
70133;BME280;57495;49.922;7.966;2023-02-15T01:37:47;101454.75;;;1.79;100.00
70133;BME280;57495;49.922;7.966;2023-02-15T01:39:48;101448.47;;;1.81;100.00
70133;BME280;57495;49.922;7.966;2023-02-15T01:41:50;101439.63;;;1.84;100.00
70133;BME280;57495;49.922;7.966;2023-02-15T01:43:53;101441.34;;;1.85;100.00
70133;BME280;57495;49.922;7.966;2023-02-15T01:45:55;101440.03;;;1.71;100.00
70133;BME280;57495;49.922;7.966;2023-02-15T01:47:59;101435.31;;;1.54;100.00
70133;BME280;57495;49.922;7.966;2023-02-15T01:50:11;101432.41;;;1.62;100.00
70133;BME280;57495;49.922;7.966;2023-02-15T01:52:17;101430.09;;;1.53;100.00
70133;BME280;57495;49.922;7.966;2023-02-15T01:54:23;101430.13;;;1.51;100.00
70133;BME280;57495;49.922;7.966;2023-02-15T01:56:29;101431.31;;;1.43;100.00
70133;BME280;57495;49.922;7.966;2023-02-15T01:58:33;101426.81;;;1.46;100.00
70133;BME280;57495;49.922;7.966;2023-02-15T02:00:35;101422.75;;;1.34;100.00
70133;BME280;57495;49.922;7.966;2023-02-15T02:02:36;101426.72;;;1.48;100.00
70133;BME280;57495;49.922;7.966;2023-02-15T02:04:41;101414.66;;;1.41;100.00
70133;BME280;57495;49.922;7.966;2023-02-15T02:06:47;101418.00;;;1.46;100.00
70133;BME280;57495;49.922;7.966;2023-02-15T02:08:51;101421.06;;;1.60;100.00
70133;BME280;57495;49.922;7.966;2023-02-15T02:10:54;101420.09;;;1.63;100.00
70133;BME280;57495;49.922;7.966;2023-02-15T02:12:57;101416.69;;;1.59;100.00
70133;BME280;57495;49.922;7.966;2023-02-15T02:15:00;101420.22;;;1.60;100.00
70133;BME280;57495;49.922;7.966;2023-02-15T02:17:06;101422.97;;;1.55;100.00
70133;BME280;57495;49.922;7.966;2023-02-15T02:22:07;101426.84;;;1.71;100.00
70133;BME280;57495;49.922;7.966;2023-02-15T02:24:39;101415.03;;;1.83;100.00
70133;BME280;57495;49.922;7.966;2023-02-15T02:27:13;101414.06;;;1.86;100.00
70133;BME280;57495;49.922;7.966;2023-02-15T02:29:33;101424.50;;;1.89;100.00
70133;BME280;57495;49.922;7.966;2023-02-15T02:34:22;101424.84;;;1.51;100.00
70133;BME280;57495;49.922;7.966;2023-02-15T02:36:31;101414.06;;;1.32;100.00
70133;BME280;57495;49.922;7.966;2023-02-15T02:38:44;101419.41;;;1.29;100.00
70133;BME280;57495;49.922;7.966;2023-02-15T02:40:54;101412.84;;;1.14;100.00
70133;BME280;57495;49.922;7.966;2023-02-15T02:43:00;101407.53;;;1.16;100.00
70133;BME280;57495;49.922;7.966;2023-02-15T02:45:05;101404.94;;;1.14;100.00
70133;BME280;57495;49.922;7.966;2023-02-15T02:47:12;101411.09;;;1.15;100.00
70133;BME280;57495;49.922;7.966;2023-02-15T02:49:14;101407.53;;;1.16;100.00
70133;BME280;57495;49.922;7.966;2023-02-15T02:51:17;101402.78;;;1.27;100.00
70133;BME280;57495;49.922;7.966;2023-02-15T02:53:21;101396.53;;;1.31;100.00
70133;BME280;57495;49.922;7.966;2023-02-15T02:55:25;101397.44;;;1.30;100.00
70133;BME280;57495;49.922;7.966;2023-02-15T02:57:29;101402.75;;;1.29;100.00
70133;BME280;57495;49.922;7.966;2023-02-15T02:59:37;101389.16;;;1.43;100.00
70133;BME280;57495;49.922;7.966;2023-02-15T03:01:45;101392.28;;;1.54;100.00
70133;BME280;57495;49.922;7.966;2023-02-15T03:03:49;101390.44;;;1.56;100.00
70133;BME280;57495;49.922;7.966;2023-02-15T03:05:55;101384.34;;;1.56;100.00
70133;BME280;57495;49.922;7.966;2023-02-15T03:08:02;101386.34;;;1.47;100.00
70133;BME280;57495;49.922;7.966;2023-02-15T03:10:07;101380.75;;;1.57;100.00
70133;BME280;57495;49.922;7.966;2023-02-15T03:12:11;101382.41;;;1.59;100.00
70133;BME280;57495;49.922;7.966;2023-02-15T03:14:14;101379.69;;;1.62;100.00
70133;BME280;57495;49.922;7.966;2023-02-15T03:16:17;101377.22;;;1.58;100.00
70133;BME280;57495;49.922;7.966;2023-02-15T03:18:29;101372.09;;;1.53;100.00
70133;BME280;57495;49.922;7.966;2023-02-15T03:20:34;101375.34;;;1.34;100.00
70133;BME280;57495;49.922;7.966;2023-02-15T03:22:39;101370.53;;;1.47;100.00
70133;BME280;57495;49.922;7.966;2023-02-15T03:24:50;101371.03;;;1.32;100.00
70133;BME280;57495;49.922;7.966;2023-02-15T03:26:53;101365.41;;;1.16;100.00
70133;BME280;57495;49.922;7.966;2023-02-15T03:28:57;101365.41;;;1.16;100.00
70133;BME280;57495;49.922;7.966;2023-02-15T03:31:01;101361.19;;;1.10;100.00
70133;BME280;57495;49.922;7.966;2023-02-15T03:33:05;101356.97;;;1.05;100.00
70133;BME280;57495;49.922;7.966;2023-02-15T03:35:08;101361.09;;;0.85;100.00
70133;BME280;57495;49.922;7.966;2023-02-15T03:37:13;101362.63;;;0.92;100.00
70133;BME280;57495;49.922;7.966;2023-02-15T03:39:19;101369.13;;;1.09;100.00
70133;BME280;57495;49.922;7.966;2023-02-15T03:41:25;101367.72;;;1.25;100.00
70133;BME280;57495;49.922;7.966;2023-02-15T03:43:36;101359.75;;;1.28;100.00
70133;BME280;57495;49.922;7.966;2023-02-15T03:45:42;101361.94;;;1.41;100.00
70133;BME280;57495;49.922;7.966;2023-02-15T03:47:56;101365.22;;;1.49;100.00
70133;BME280;57495;49.922;7.966;2023-02-15T03:50:01;101363.91;;;1.35;100.00
70133;BME280;57495;49.922;7.966;2023-02-15T03:52:06;101372.66;;;1.36;100.00
70133;BME280;57495;49.922;7.966;2023-02-15T03:54:10;101359.22;;;1.44;100.00
70133;BME280;57495;49.922;7.966;2023-02-15T03:56:12;101359.19;;;1.45;100.00
70133;BME280;57495;49.922;7.966;2023-02-15T03:58:15;101359.00;;;1.50;100.00
70133;BME280;57495;49.922;7.966;2023-02-15T04:00:36;101351.63;;;1.61;100.00
70133;BME280;57495;49.922;7.966;2023-02-15T04:03:18;101354.03;;;1.67;100.00
70133;BME280;57495;49.922;7.966;2023-02-15T04:05:23;101363.78;;;1.65;100.00
70133;BME280;57495;49.922;7.966;2023-02-15T04:07:24;101354.03;;;1.67;100.00
70133;BME280;57495;49.922;7.966;2023-02-15T04:09:26;101359.22;;;1.70;100.00
70133;BME280;57495;49.922;7.966;2023-02-15T04:11:45;101357.53;;;1.68;100.00
70133;BME280;57495;49.922;7.966;2023-02-15T04:13:48;101363.56;;;1.71;100.00
70133;BME280;57495;49.922;7.966;2023-02-15T04:15:57;101366.25;;;1.70;100.00
70133;BME280;57495;49.922;7.966;2023-02-15T04:18:03;101370.56;;;1.72;100.00
70133;BME280;57495;49.922;7.966;2023-02-15T04:20:06;101365.44;;;1.68;100.00
70133;BME280;57495;49.922;7.966;2023-02-15T04:22:26;101367.19;;;1.69;100.00
70133;BME280;57495;49.922;7.966;2023-02-15T04:24:45;101374.09;;;1.71;100.00
70133;BME280;57495;49.922;7.966;2023-02-15T04:27:04;101375.22;;;1.64;100.00
70133;BME280;57495;49.922;7.966;2023-02-15T04:29:07;101377.00;;;1.64;100.00
70133;BME280;57495;49.922;7.966;2023-02-15T04:31:09;101376.34;;;1.57;100.00
70133;BME280;57495;49.922;7.966;2023-02-15T04:33:10;101374.41;;;1.62;100.00
70133;BME280;57495;49.922;7.966;2023-02-15T04:35:12;101370.88;;;1.63;100.00
70133;BME280;57495;49.922;7.966;2023-02-15T04:37:14;101377.88;;;1.64;100.00
70133;BME280;57495;49.922;7.966;2023-02-15T04:39:16;101377.88;;;1.64;100.00
70133;BME280;57495;49.922;7.966;2023-02-15T04:41:18;101372.41;;;1.70;100.00
70133;BME280;57495;49.922;7.966;2023-02-15T04:43:19;101369.63;;;1.73;100.00
70133;BME280;57495;49.922;7.966;2023-02-15T04:45:22;101378.34;;;1.76;100.00
70133;BME280;57495;49.922;7.966;2023-02-15T04:47:23;101377.91;;;1.63;100.00
70133;BME280;57495;49.922;7.966;2023-02-15T04:49:25;101375.28;;;1.63;100.00
70133;BME280;57495;49.922;7.966;2023-02-15T04:51:26;101365.72;;;1.60;100.00
70133;BME280;57495;49.922;7.966;2023-02-15T04:53:28;101358.56;;;1.64;100.00
70133;BME280;57495;49.922;7.966;2023-02-15T04:55:29;101362.03;;;1.64;100.00
70133;BME280;57495;49.922;7.966;2023-02-15T04:57:31;101365.41;;;1.69;100.00
70133;BME280;57495;49.922;7.966;2023-02-15T04:59:32;101360.34;;;1.63;100.00
70133;BME280;57495;49.922;7.966;2023-02-15T05:01:35;101362.03;;;1.64;100.00
70133;BME280;57495;49.922;7.966;2023-02-15T05:03:36;101352.94;;;1.48;100.00
70133;BME280;57495;49.922;7.966;2023-02-15T05:05:38;101352.34;;;1.40;100.00
70133;BME280;57495;49.922;7.966;2023-02-15T05:07:39;101353.16;;;1.42;100.00
70133;BME280;57495;49.922;7.966;2023-02-15T05:09:40;101358.16;;;1.23;100.00
70133;BME280;57495;49.922;7.966;2023-02-15T05:11:42;101349.16;;;1.30;100.00
70133;BME280;57495;49.922;7.966;2023-02-15T05:13:43;101349.66;;;1.41;100.00
70133;BME280;57495;49.922;7.966;2023-02-15T05:15:47;101344.94;;;1.51;100.00
70133;BME280;57495;49.922;7.966;2023-02-15T05:17:50;101344.84;;;1.54;100.00
70133;BME280;57495;49.922;7.966;2023-02-15T05:19:51;101339.44;;;1.57;100.00
70133;BME280;57495;49.922;7.966;2023-02-15T05:21:53;101339.34;;;1.60;100.00
70133;BME280;57495;49.922;7.966;2023-02-15T05:23:54;101335.06;;;1.58;100.00
70133;BME280;57495;49.922;7.966;2023-02-15T05:25:55;101331.53;;;1.57;100.00
70133;BME280;57495;49.922;7.966;2023-02-15T05:28:14;101345.47;;;1.61;100.00
70133;BME280;57495;49.922;7.966;2023-02-15T05:30:21;101342.78;;;1.62;100.00
70133;BME280;57495;49.922;7.966;2023-02-15T05:32:22;101348.28;;;1.56;100.00
70133;BME280;57495;49.922;7.966;2023-02-15T05:34:25;101346.34;;;1.61;100.00
70133;BME280;57495;49.922;7.966;2023-02-15T05:36:26;101343.63;;;1.63;100.00
70133;BME280;57495;49.922;7.966;2023-02-15T05:38:29;101351.50;;;1.64;100.00
70133;BME280;57495;49.922;7.966;2023-02-15T05:40:30;101349.00;;;1.61;100.00
70133;BME280;57495;49.922;7.966;2023-02-15T05:42:31;101348.06;;;1.62;100.00
70133;BME280;57495;49.922;7.966;2023-02-15T05:44:33;101353.34;;;1.62;100.00
70133;BME280;57495;49.922;7.966;2023-02-15T05:46:34;101342.88;;;1.59;100.00
70133;BME280;57495;49.922;7.966;2023-02-15T05:48:36;101343.63;;;1.63;100.00
70133;BME280;57495;49.922;7.966;2023-02-15T05:50:38;101341.84;;;1.65;100.00
70133;BME280;57495;49.922;7.966;2023-02-15T05:52:40;101337.41;;;1.65;100.00
70133;BME280;57495;49.922;7.966;2023-02-15T05:54:41;101344.63;;;1.60;100.00
70133;BME280;57495;49.922;7.966;2023-02-15T05:56:43;101348.28;;;1.56;100.00
70133;BME280;57495;49.922;7.966;2023-02-15T05:58:44;101355.25;;;1.57;100.00
70133;BME280;57495;49.922;7.966;2023-02-15T06:00:45;101358.19;;;1.48;100.00
70133;BME280;57495;49.922;7.966;2023-02-15T06:02:47;101353.72;;;1.50;100.00
70133;BME280;57495;49.922;7.966;2023-02-15T06:04:48;101361.91;;;1.42;100.00
70133;BME280;57495;49.922;7.966;2023-02-15T06:06:51;101356.59;;;1.44;100.00
70133;BME280;57495;49.922;7.966;2023-02-15T06:08:52;101357.75;;;1.08;100.00
70133;BME280;57495;49.922;7.966;2023-02-15T06:10:54;101361.00;;;0.88;100.00
70133;BME280;57495;49.922;7.966;2023-02-15T06:12:55;101360.63;;;0.72;100.00
70133;BME280;57495;49.922;7.966;2023-02-15T06:14:56;101364.28;;;0.96;100.00
70133;BME280;57495;49.922;7.966;2023-02-15T06:16:58;101363.25;;;1.01;100.00
70133;BME280;57495;49.922;7.966;2023-02-15T06:18:59;101364.28;;;0.96;100.00
70133;BME280;57495;49.922;7.966;2023-02-15T06:21:02;101365.50;;;1.13;100.00
70133;BME280;57495;49.922;7.966;2023-02-15T06:23:04;101367.13;;;1.17;100.00
70133;BME280;57495;49.922;7.966;2023-02-15T06:25:06;101368.47;;;1.02;100.00
70133;BME280;57495;49.922;7.966;2023-02-15T06:27:09;101367.13;;;0.89;100.00
70133;BME280;57495;49.922;7.966;2023-02-15T06:29:11;101378.28;;;0.69;100.00
70133;BME280;57495;49.922;7.966;2023-02-15T06:31:12;101371.75;;;0.81;100.00
70133;BME280;57495;49.922;7.966;2023-02-15T06:33:14;101368.00;;;0.89;100.00
70133;BME280;57495;49.922;7.966;2023-02-15T06:35:15;101368.63;;;0.68;100.00
70133;BME280;57495;49.922;7.966;2023-02-15T06:37:17;101373.16;;;0.63;100.00
70133;BME280;57495;49.922;7.966;2023-02-15T06:39:20;101374.75;;;0.68;100.00
70133;BME280;57495;49.922;7.966;2023-02-15T06:41:21;101375.25;;;0.81;100.00
70133;BME280;57495;49.922;7.966;2023-02-15T06:43:22;101377.59;;;0.62;100.00
70133;BME280;57495;49.922;7.966;2023-02-15T06:45:24;101374.47;;;0.77;100.00
70133;BME280;57495;49.922;7.966;2023-02-15T06:47:25;101380.47;;;0.83;100.00
70133;BME280;57495;49.922;7.966;2023-02-15T06:49:27;101386.19;;;0.97;100.00
70133;BME280;57495;49.922;7.966;2023-02-15T06:51:28;101383.41;;;1.02;100.00
70133;BME280;57495;49.922;7.966;2023-02-15T06:53:30;101388.56;;;1.05;100.00
70133;BME280;57495;49.922;7.966;2023-02-15T06:55:32;101383.31;;;1.05;100.00
70133;BME280;57495;49.922;7.966;2023-02-15T06:57:34;101383.22;;;1.08;100.00
70133;BME280;57495;49.922;7.966;2023-02-15T06:59:35;101381.31;;;1.13;100.00
70133;BME280;57495;49.922;7.966;2023-02-15T07:01:37;101386.16;;;0.69;100.00
70133;BME280;57495;49.922;7.966;2023-02-15T07:03:38;101384.19;;;0.75;100.00
70133;BME280;57495;49.922;7.966;2023-02-15T07:05:40;101388.72;;;0.70;100.00
70133;BME280;57495;49.922;7.966;2023-02-15T07:07:41;101390.50;;;0.70;100.00
70133;BME280;57495;49.922;7.966;2023-02-15T07:09:42;101390.38;;;0.74;100.00
70133;BME280;57495;49.922;7.966;2023-02-15T07:11:45;101388.63;;;0.75;100.00
70133;BME280;57495;49.922;7.966;2023-02-15T07:14:04;101381.41;;;0.82;100.00
70133;BME280;57495;49.922;7.966;2023-02-15T07:16:05;101378.63;;;0.86;100.00
70133;BME280;57495;49.922;7.966;2023-02-15T07:18:07;101374.16;;;0.88;100.00
70133;BME280;57495;49.922;7.966;2023-02-15T07:20:11;101376.47;;;0.99;100.00
70133;BME280;57495;49.922;7.966;2023-02-15T07:22:13;101374.59;;;1.03;100.00
70133;BME280;57495;49.922;7.966;2023-02-15T07:24:14;101383.03;;;0.86;100.00
70133;BME280;57495;49.922;7.966;2023-02-15T07:26:16;101386.72;;;0.80;100.00
70133;BME280;57495;49.922;7.966;2023-02-15T07:28:18;101390.81;;;0.59;100.00
70133;BME280;57495;49.922;7.966;2023-02-15T07:30:20;101386.34;;;0.63;100.00
70133;BME280;57495;49.922;7.966;2023-02-15T07:32:22;101386.72;;;0.50;100.00
70133;BME280;57495;49.922;7.966;2023-02-15T07:34:23;101391.56;;;0.33;100.00
70133;BME280;57495;49.922;7.966;2023-02-15T07:36:24;101383.06;;;0.54;100.00
70133;BME280;57495;49.922;7.966;2023-02-15T07:38:27;101383.56;;;0.37;100.00
70133;BME280;57495;49.922;7.966;2023-02-15T07:40:28;101382.59;;;0.40;100.00
70133;BME280;57495;49.922;7.966;2023-02-15T07:42:30;101383.25;;;0.48;100.00
70133;BME280;57495;49.922;7.966;2023-02-15T07:44:33;101390.50;;;0.40;100.00
70133;BME280;57495;49.922;7.966;2023-02-15T07:46:34;101388.91;;;0.34;100.00
70133;BME280;57495;49.922;7.966;2023-02-15T07:48:36;101381.16;;;0.30;100.00
70133;BME280;57495;49.922;7.966;2023-02-15T07:50:38;101383.19;;;0.18;100.00
70133;BME280;57495;49.922;7.966;2023-02-15T07:52:39;101375.69;;;0.37;100.00
70133;BME280;57495;49.922;7.966;2023-02-15T07:54:41;101372.81;;;0.45;100.00
70133;BME280;57495;49.922;7.966;2023-02-15T07:56:42;101372.00;;;0.43;100.00
70133;BME280;57495;49.922;7.966;2023-02-15T07:58:43;101373.56;;;0.50;100.00
70133;BME280;57495;49.922;7.966;2023-02-15T08:00:57;101372.63;;;0.51;100.00
70133;BME280;57495;49.922;7.966;2023-02-15T08:03:00;101372.50;;;0.56;100.00
70133;BME280;57495;49.922;7.966;2023-02-15T08:05:14;101369.44;;;0.40;100.00
70133;BME280;57495;49.922;7.966;2023-02-15T08:07:18;101365.75;;;0.47;100.00
70133;BME280;57495;49.922;7.966;2023-02-15T08:09:19;101363.84;;;0.52;100.00
70133;BME280;57495;49.922;7.966;2023-02-15T08:11:22;101369.59;;;0.65;100.00
70133;BME280;57495;49.922;7.966;2023-02-15T08:13:26;101365.13;;;0.69;100.00
70133;BME280;57495;49.922;7.966;2023-02-15T08:15:27;101361.19;;;0.82;100.00
70133;BME280;57495;49.922;7.966;2023-02-15T08:17:30;101358.03;;;0.71;100.00
70133;BME280;57495;49.922;7.966;2023-02-15T08:19:32;101361.34;;;0.48;100.00
70133;BME280;57495;49.922;7.966;2023-02-15T08:21:35;101353.31;;;0.52;100.00
70133;BME280;57495;49.922;7.966;2023-02-15T08:23:37;101355.84;;;0.55;100.00
70133;BME280;57495;49.922;7.966;2023-02-15T08:25:38;101360.28;;;0.53;100.00
70133;BME280;57495;49.922;7.966;2023-02-15T08:27:40;101359.66;;;0.45;100.00
70133;BME280;57495;49.922;7.966;2023-02-15T08:29:41;101350.16;;;0.41;100.00
70133;BME280;57495;49.922;7.966;2023-02-15T08:31:43;101351.84;;;0.42;100.00
70133;BME280;57495;49.922;7.966;2023-02-15T08:33:48;101346.03;;;0.31;100.00
70133;BME280;57495;49.922;7.966;2023-02-15T08:35:49;101345.78;;;0.40;100.00
70133;BME280;57495;49.922;7.966;2023-02-15T08:37:51;101346.16;;;0.57;100.00
70133;BME280;57495;49.922;7.966;2023-02-15T08:39:52;101346.28;;;0.53;100.00
70133;BME280;57495;49.922;7.966;2023-02-15T08:41:54;101339.78;;;0.65;100.00
70133;BME280;57495;49.922;7.966;2023-02-15T08:43:56;101336.25;;;0.66;100.00
70133;BME280;57495;49.922;7.966;2023-02-15T08:45:58;101339.19;;;0.55;100.00
70133;BME280;57495;49.922;7.966;2023-02-15T08:48:03;101329.47;;;0.57;100.00
70133;BME280;57495;49.922;7.966;2023-02-15T08:50:06;101336.53;;;0.56;100.00
70133;BME280;57495;49.922;7.966;2023-02-15T08:52:08;101337.13;;;0.65;100.00
70133;BME280;57495;49.922;7.966;2023-02-15T08:54:12;101340.69;;;0.64;100.00
70133;BME280;57495;49.922;7.966;2023-02-15T08:56:13;101337.34;;;0.58;100.00
70133;BME280;57495;49.922;7.966;2023-02-15T08:58:15;101336.28;;;0.64;100.00
70133;BME280;57495;49.922;7.966;2023-02-15T09:00:17;101328.97;;;0.74;100.00
70133;BME280;57495;49.922;7.966;2023-02-15T09:02:19;101323.56;;;0.79;100.00
70133;BME280;57495;49.922;7.966;2023-02-15T09:04:21;101327.19;;;1.03;100.00
70133;BME280;57495;49.922;7.966;2023-02-15T09:06:24;101321.84;;;1.06;100.00
70133;BME280;57495;49.922;7.966;2023-02-15T09:08:26;101321.31;;;1.21;100.00
70133;BME280;57495;49.922;7.966;2023-02-15T09:10:28;101324.09;;;1.16;100.00
70133;BME280;57495;49.922;7.966;2023-02-15T09:12:29;101323.75;;;1.01;100.00
70133;BME280;57495;49.922;7.966;2023-02-15T09:14:31;101329.09;;;0.98;100.00
70133;BME280;57495;49.922;7.966;2023-02-15T09:16:34;101327.22;;;1.01;100.00
70133;BME280;57495;49.922;7.966;2023-02-15T09:18:37;101328.16;;;1.00;100.00
70133;BME280;57495;49.922;7.966;2023-02-15T09:20:39;101323.25;;;1.16;100.00
70133;BME280;57495;49.922;7.966;2023-02-15T09:22:41;101324.31;;;1.10;100.00
70133;BME280;57495;49.922;7.966;2023-02-15T09:24:43;101336.66;;;1.08;100.00
70133;BME280;57495;49.922;7.966;2023-02-15T09:26:46;101339.56;;;1.01;100.00
70133;BME280;57495;49.922;7.966;2023-02-15T09:28:51;101338.31;;;0.84;100.00
70133;BME280;57495;49.922;7.966;2023-02-15T09:30:52;101330.16;;;0.92;100.00
70133;BME280;57495;49.922;7.966;2023-02-15T09:32:55;101333.66;;;0.92;100.00
70133;BME280;57495;49.922;7.966;2023-02-15T09:34:57;101329.88;;;0.73;100.00
70133;BME280;57495;49.922;7.966;2023-02-15T09:36:58;101330.31;;;0.87;100.00
70133;BME280;57495;49.922;7.966;2023-02-15T09:39:06;101332.97;;;0.87;100.00
70133;BME280;57495;49.922;7.966;2023-02-15T09:41:19;101331.94;;;0.91;100.00
70133;BME280;57495;49.922;7.966;2023-02-15T09:43:31;101327.47;;;0.93;100.00
70133;BME280;57495;49.922;7.966;2023-02-15T09:48:29;101331.03;;;0.92;100.00
70133;BME280;57495;49.922;7.966;2023-02-15T09:50:43;101336.28;;;0.92;100.00
70133;BME280;57495;49.922;7.966;2023-02-15T09:53:08;101338.31;;;0.84;100.00
70133;BME280;57495;49.922;7.966;2023-02-15T09:55:36;101341.66;;;0.61;100.00
70133;BME280;57495;49.922;7.966;2023-02-15T09:57:44;101341.78;;;0.56;100.00
70133;BME280;57495;49.922;7.966;2023-02-15T09:59:56;101349.13;;;0.75;100.00
70133;BME280;57495;49.922;7.966;2023-02-15T10:02:11;101345.41;;;0.82;100.00
70133;BME280;57495;49.922;7.966;2023-02-15T10:04:32;101343.31;;;0.92;100.00
70133;BME280;57495;49.922;7.966;2023-02-15T10:06:39;101343.84;;;0.75;100.00
70133;BME280;57495;49.922;7.966;2023-02-15T10:09:00;101346.22;;;0.84;100.00
70133;BME280;57495;49.922;7.966;2023-02-15T10:11:11;101353.81;;;0.93;100.00
70133;BME280;57495;49.922;7.966;2023-02-15T10:13:38;101349.31;;;0.69;100.00
70133;BME280;57495;49.922;7.966;2023-02-15T10:15:53;101354.59;;;0.69;100.00
70133;BME280;57495;49.922;7.966;2023-02-15T10:18:05;101358.38;;;0.58;100.00
70133;BME280;57495;49.922;7.966;2023-02-15T10:20:19;101355.41;;;0.41;100.00
70133;BME280;57495;49.922;7.966;2023-02-15T10:22:33;101351.31;;;0.61;100.00
70133;BME280;57495;49.922;7.966;2023-02-15T10:24:54;101346.22;;;0.54;100.00
70133;BME280;57495;49.922;7.966;2023-02-15T10:27:04;101338.38;;;0.81;100.00
70133;BME280;57495;49.922;7.966;2023-02-15T10:29:09;101337.28;;;0.88;100.00
70133;BME280;57495;49.922;7.966;2023-02-15T10:31:23;101338.50;;;1.06;100.00
70133;BME280;57495;49.922;7.966;2023-02-15T10:33:39;101344.72;;;1.04;100.00
70133;BME280;57495;49.922;7.966;2023-02-15T10:35:46;101342.31;;;0.96;100.00
70133;BME280;57495;49.922;7.966;2023-02-15T10:38:02;101339.56;;;1.01;100.00
70133;BME280;57495;49.922;7.966;2023-02-15T10:40:11;101340.19;;;1.07;100.00
70133;BME280;57495;49.922;7.966;2023-02-15T10:42:25;101331.31;;;1.11;100.00
70133;BME280;57495;49.922;7.966;2023-02-15T10:44:48;101329.56;;;1.10;100.00
70133;BME280;57495;49.922;7.966;2023-02-15T10:47:09;101339.47;;;1.04;100.00
70133;BME280;57495;49.922;7.966;2023-02-15T10:49:25;101335.94;;;1.03;100.00
70133;BME280;57495;49.922;7.966;2023-02-15T10:51:39;101327.91;;;1.08;100.00
70133;BME280;57495;49.922;7.966;2023-02-15T10:53:57;101316.06;;;1.21;100.00
70133;BME280;57495;49.922;7.966;2023-02-15T10:56:11;101319.50;;;1.23;100.00
70133;BME280;57495;49.922;7.966;2023-02-15T10:58:25;101314.19;;;1.50;100.00
70133;BME280;57495;49.922;7.966;2023-02-15T11:00:35;101312.59;;;1.46;100.00